sensor_id;sensor_type;location;lat;lon;timestamp;P1;durP1;ratioP1;P2;durP2;ratioP2
74945;SDS011;63509;45.250;38.102;2024-02-14T00:00:09;19.33;;;8.80;;
74945;SDS011;63509;45.250;38.102;2024-02-14T00:02:41;17.45;;;8.93;;
74945;SDS011;63509;45.250;38.102;2024-02-14T00:07:36;20.38;;;9.00;;
74945;SDS011;63509;45.250;38.102;2024-02-14T00:10:03;18.70;;;9.68;;
74945;SDS011;63509;45.250;38.102;2024-02-14T00:12:34;20.50;;;10.25;;
74945;SDS011;63509;45.250;38.102;2024-02-14T00:15:04;20.08;;;9.52;;
74945;SDS011;63509;45.250;38.102;2024-02-14T00:17:34;13.07;;;8.07;;
74945;SDS011;63509;45.250;38.102;2024-02-14T00:20:01;20.35;;;8.82;;
74945;SDS011;63509;45.250;38.102;2024-02-14T00:22:28;25.48;;;9.77;;
74945;SDS011;63509;45.250;38.102;2024-02-14T00:24:55;36.92;;;9.82;;
74945;SDS011;63509;45.250;38.102;2024-02-14T00:27:21;23.30;;;9.38;;
74945;SDS011;63509;45.250;38.102;2024-02-14T00:29:47;37.35;;;9.32;;
74945;SDS011;63509;45.250;38.102;2024-02-14T00:32:14;18.55;;;9.35;;
74945;SDS011;63509;45.250;38.102;2024-02-14T00:34:42;20.08;;;9.40;;
74945;SDS011;63509;45.250;38.102;2024-02-14T00:37:08;21.35;;;9.07;;
74945;SDS011;63509;45.250;38.102;2024-02-14T00:39:34;18.10;;;9.25;;
74945;SDS011;63509;45.250;38.102;2024-02-14T00:42:02;19.08;;;9.85;;
74945;SDS011;63509;45.250;38.102;2024-02-14T00:44:28;20.77;;;9.82;;
74945;SDS011;63509;45.250;38.102;2024-02-14T00:46:57;22.80;;;9.70;;
74945;SDS011;63509;45.250;38.102;2024-02-14T00:49:28;24.48;;;9.43;;
74945;SDS011;63509;45.250;38.102;2024-02-14T00:51:55;46.13;;;16.25;;
74945;SDS011;63509;45.250;38.102;2024-02-14T00:54:21;52.05;;;17.50;;
74945;SDS011;63509;45.250;38.102;2024-02-14T00:56:47;52.05;;;18.38;;
74945;SDS011;63509;45.250;38.102;2024-02-14T00:59:14;23.67;;;11.88;;
74945;SDS011;63509;45.250;38.102;2024-02-14T01:01:42;25.40;;;11.23;;
74945;SDS011;63509;45.250;38.102;2024-02-14T01:04:08;22.45;;;9.43;;
74945;SDS011;63509;45.250;38.102;2024-02-14T01:06:34;35.80;;;9.98;;
74945;SDS011;63509;45.250;38.102;2024-02-14T01:09:00;30.77;;;10.82;;
74945;SDS011;63509;45.250;38.102;2024-02-14T01:11:26;27.65;;;9.55;;
74945;SDS011;63509;45.250;38.102;2024-02-14T01:13:54;31.73;;;11.10;;
74945;SDS011;63509;45.250;38.102;2024-02-14T01:16:20;35.80;;;10.20;;
74945;SDS011;63509;45.250;38.102;2024-02-14T01:18:46;28.08;;;9.30;;
74945;SDS011;63509;45.250;38.102;2024-02-14T01:21:12;32.28;;;9.63;;
74945;SDS011;63509;45.250;38.102;2024-02-14T01:23:38;24.42;;;9.40;;
74945;SDS011;63509;45.250;38.102;2024-02-14T01:26:05;20.98;;;9.25;;
74945;SDS011;63509;45.250;38.102;2024-02-14T01:28:31;25.15;;;9.40;;
74945;SDS011;63509;45.250;38.102;2024-02-14T01:30:57;18.35;;;9.35;;
74945;SDS011;63509;45.250;38.102;2024-02-14T01:33:23;28.17;;;10.60;;
74945;SDS011;63509;45.250;38.102;2024-02-14T01:35:49;24.02;;;9.52;;
74945;SDS011;63509;45.250;38.102;2024-02-14T01:38:16;17.00;;;9.27;;
74945;SDS011;63509;45.250;38.102;2024-02-14T01:40:43;17.52;;;10.18;;
74945;SDS011;63509;45.250;38.102;2024-02-14T01:43:10;15.35;;;9.50;;
74945;SDS011;63509;45.250;38.102;2024-02-14T01:45:37;26.65;;;9.00;;
74945;SDS011;63509;45.250;38.102;2024-02-14T01:48:07;15.98;;;8.48;;
74945;SDS011;63509;45.250;38.102;2024-02-14T01:50:35;25.27;;;8.85;;
74945;SDS011;63509;45.250;38.102;2024-02-14T01:53:01;21.67;;;9.68;;
74945;SDS011;63509;45.250;38.102;2024-02-14T01:55:29;27.60;;;8.68;;
74945;SDS011;63509;45.250;38.102;2024-02-14T01:57:55;25.42;;;9.50;;
74945;SDS011;63509;45.250;38.102;2024-02-14T02:00:22;17.98;;;8.15;;
74945;SDS011;63509;45.250;38.102;2024-02-14T02:02:48;28.98;;;8.73;;
74945;SDS011;63509;45.250;38.102;2024-02-14T02:05:19;24.63;;;9.02;;
74945;SDS011;63509;45.250;38.102;2024-02-14T02:07:47;15.50;;;8.35;;
74945;SDS011;63509;45.250;38.102;2024-02-14T02:10:14;26.08;;;9.60;;
74945;SDS011;63509;45.250;38.102;2024-02-14T02:12:41;17.17;;;8.70;;
74945;SDS011;63509;45.250;38.102;2024-02-14T02:15:08;13.73;;;7.93;;
74945;SDS011;63509;45.250;38.102;2024-02-14T02:17:40;23.17;;;9.57;;
74945;SDS011;63509;45.250;38.102;2024-02-14T02:20:10;21.00;;;11.23;;
74945;SDS011;63509;45.250;38.102;2024-02-14T02:22:37;18.02;;;10.05;;
74945;SDS011;63509;45.250;38.102;2024-02-14T02:25:07;20.45;;;9.27;;
74945;SDS011;63509;45.250;38.102;2024-02-14T02:27:33;24.33;;;10.35;;
74945;SDS011;63509;45.250;38.102;2024-02-14T02:30:08;23.30;;;9.82;;
74945;SDS011;63509;45.250;38.102;2024-02-14T02:32:36;18.35;;;9.77;;
74945;SDS011;63509;45.250;38.102;2024-02-14T02:35:03;44.13;;;9.13;;
74945;SDS011;63509;45.250;38.102;2024-02-14T02:37:33;28.55;;;10.00;;
74945;SDS011;63509;45.250;38.102;2024-02-14T02:39:59;22.77;;;8.50;;
74945;SDS011;63509;45.250;38.102;2024-02-14T02:42:25;17.52;;;8.15;;
74945;SDS011;63509;45.250;38.102;2024-02-14T02:44:51;28.27;;;9.65;;
74945;SDS011;63509;45.250;38.102;2024-02-14T02:47:17;26.83;;;8.57;;
74945;SDS011;63509;45.250;38.102;2024-02-14T02:49:44;22.42;;;8.40;;
74945;SDS011;63509;45.250;38.102;2024-02-14T02:52:11;21.20;;;9.70;;
74945;SDS011;63509;45.250;38.102;2024-02-14T02:54:37;23.75;;;9.00;;
74945;SDS011;63509;45.250;38.102;2024-02-14T02:57:11;27.63;;;8.55;;
74945;SDS011;63509;45.250;38.102;2024-02-14T02:59:38;25.90;;;8.90;;
74945;SDS011;63509;45.250;38.102;2024-02-14T03:02:08;20.80;;;8.43;;
74945;SDS011;63509;45.250;38.102;2024-02-14T03:04:38;18.52;;;7.85;;
74945;SDS011;63509;45.250;38.102;2024-02-14T03:07:04;18.95;;;8.20;;
74945;SDS011;63509;45.250;38.102;2024-02-14T03:09:37;18.55;;;8.05;;
74945;SDS011;63509;45.250;38.102;2024-02-14T03:12:03;22.90;;;10.75;;
74945;SDS011;63509;45.250;38.102;2024-02-14T03:14:30;27.67;;;9.20;;
74945;SDS011;63509;45.250;38.102;2024-02-14T03:17:01;17.00;;;7.80;;
74945;SDS011;63509;45.250;38.102;2024-02-14T03:19:28;35.55;;;10.52;;
74945;SDS011;63509;45.250;38.102;2024-02-14T03:21:55;40.60;;;10.65;;
74945;SDS011;63509;45.250;38.102;2024-02-14T03:24:22;35.17;;;9.98;;
74945;SDS011;63509;45.250;38.102;2024-02-14T03:26:52;23.67;;;10.00;;
74945;SDS011;63509;45.250;38.102;2024-02-14T03:29:19;26.67;;;8.90;;
74945;SDS011;63509;45.250;38.102;2024-02-14T03:31:46;21.88;;;11.15;;
74945;SDS011;63509;45.250;38.102;2024-02-14T03:34:13;15.45;;;8.30;;
74945;SDS011;63509;45.250;38.102;2024-02-14T03:36:40;18.75;;;11.15;;
74945;SDS011;63509;45.250;38.102;2024-02-14T03:39:08;21.65;;;8.68;;
74945;SDS011;63509;45.250;38.102;2024-02-14T03:41:34;20.58;;;7.78;;
74945;SDS011;63509;45.250;38.102;2024-02-14T03:44:00;24.05;;;8.07;;
74945;SDS011;63509;45.250;38.102;2024-02-14T03:46:28;24.50;;;8.15;;
74945;SDS011;63509;45.250;38.102;2024-02-14T03:48:55;22.35;;;7.50;;
74945;SDS011;63509;45.250;38.102;2024-02-14T03:51:25;57.22;;;9.55;;
74945;SDS011;63509;45.250;38.102;2024-02-14T03:53:51;23.65;;;8.07;;
74945;SDS011;63509;45.250;38.102;2024-02-14T03:56:17;24.83;;;9.05;;
74945;SDS011;63509;45.250;38.102;2024-02-14T03:58:43;27.15;;;9.07;;
74945;SDS011;63509;45.250;38.102;2024-02-14T04:01:10;27.92;;;9.23;;
74945;SDS011;63509;45.250;38.102;2024-02-14T04:03:36;29.10;;;9.02;;
74945;SDS011;63509;45.250;38.102;2024-02-14T04:06:02;47.63;;;10.52;;
74945;SDS011;63509;45.250;38.102;2024-02-14T04:08:28;51.28;;;11.63;;
74945;SDS011;63509;45.250;38.102;2024-02-14T04:10:55;42.22;;;10.30;;
74945;SDS011;63509;45.250;38.102;2024-02-14T04:13:21;43.47;;;10.70;;
74945;SDS011;63509;45.250;38.102;2024-02-14T04:15:48;35.58;;;10.13;;
74945;SDS011;63509;45.250;38.102;2024-02-14T04:18:14;34.03;;;10.40;;
74945;SDS011;63509;45.250;38.102;2024-02-14T04:20:41;45.67;;;9.77;;
74945;SDS011;63509;45.250;38.102;2024-02-14T04:23:08;30.15;;;8.85;;
74945;SDS011;63509;45.250;38.102;2024-02-14T04:25:34;45.88;;;11.07;;
74945;SDS011;63509;45.250;38.102;2024-02-14T04:28:02;66.35;;;11.52;;
74945;SDS011;63509;45.250;38.102;2024-02-14T04:30:29;44.65;;;12.20;;
74945;SDS011;63509;45.250;38.102;2024-02-14T04:32:55;62.55;;;12.40;;
74945;SDS011;63509;45.250;38.102;2024-02-14T04:35:21;48.58;;;12.57;;
74945;SDS011;63509;45.250;38.102;2024-02-14T04:37:48;38.78;;;11.82;;
74945;SDS011;63509;45.250;38.102;2024-02-14T04:40:14;35.03;;;10.55;;
74945;SDS011;63509;45.250;38.102;2024-02-14T04:42:41;43.85;;;13.30;;
74945;SDS011;63509;45.250;38.102;2024-02-14T04:45:07;36.15;;;11.93;;
74945;SDS011;63509;45.250;38.102;2024-02-14T04:47:34;30.60;;;11.82;;
74945;SDS011;63509;45.250;38.102;2024-02-14T04:50:00;46.53;;;12.07;;
74945;SDS011;63509;45.250;38.102;2024-02-14T04:52:28;51.22;;;14.13;;
74945;SDS011;63509;45.250;38.102;2024-02-14T04:54:55;36.85;;;13.10;;
74945;SDS011;63509;45.250;38.102;2024-02-14T04:57:22;49.30;;;13.23;;
74945;SDS011;63509;45.250;38.102;2024-02-14T04:59:48;47.60;;;11.93;;
74945;SDS011;63509;45.250;38.102;2024-02-14T05:02:14;38.33;;;12.57;;
74945;SDS011;63509;45.250;38.102;2024-02-14T05:04:41;57.67;;;13.30;;
74945;SDS011;63509;45.250;38.102;2024-02-14T05:07:08;86.53;;;15.65;;
74945;SDS011;63509;45.250;38.102;2024-02-14T05:09:35;74.75;;;14.63;;
74945;SDS011;63509;45.250;38.102;2024-02-14T05:12:01;44.25;;;12.82;;
74945;SDS011;63509;45.250;38.102;2024-02-14T05:14:29;50.60;;;14.25;;
74945;SDS011;63509;45.250;38.102;2024-02-14T05:16:56;57.33;;;17.35;;
74945;SDS011;63509;45.250;38.102;2024-02-14T05:19:23;60.78;;;14.85;;
74945;SDS011;63509;45.250;38.102;2024-02-14T05:21:51;38.40;;;14.55;;
74945;SDS011;63509;45.250;38.102;2024-02-14T05:24:18;70.10;;;14.95;;
74945;SDS011;63509;45.250;38.102;2024-02-14T05:26:45;43.13;;;14.00;;
74945;SDS011;63509;45.250;38.102;2024-02-14T05:29:12;93.05;;;15.75;;
74945;SDS011;63509;45.250;38.102;2024-02-14T05:31:45;84.28;;;16.65;;
74945;SDS011;63509;45.250;38.102;2024-02-14T05:34:14;75.93;;;15.68;;
74945;SDS011;63509;45.250;38.102;2024-02-14T05:36:45;53.50;;;15.43;;
74945;SDS011;63509;45.250;38.102;2024-02-14T05:39:12;51.13;;;15.10;;
74945;SDS011;63509;45.250;38.102;2024-02-14T05:41:39;37.92;;;14.32;;
74945;SDS011;63509;45.250;38.102;2024-02-14T05:44:06;66.35;;;17.63;;
74945;SDS011;63509;45.250;38.102;2024-02-14T05:46:32;42.40;;;16.70;;
74945;SDS011;63509;45.250;38.102;2024-02-14T05:48:59;45.75;;;14.82;;
74945;SDS011;63509;45.250;38.102;2024-02-14T05:51:25;53.28;;;15.55;;
74945;SDS011;63509;45.250;38.102;2024-02-14T05:53:51;81.22;;;17.55;;
74945;SDS011;63509;45.250;38.102;2024-02-14T05:56:18;65.88;;;17.05;;
74945;SDS011;63509;45.250;38.102;2024-02-14T05:58:44;62.35;;;16.52;;
74945;SDS011;63509;45.250;38.102;2024-02-14T06:01:11;60.00;;;15.70;;
74945;SDS011;63509;45.250;38.102;2024-02-14T06:03:41;56.78;;;15.68;;
74945;SDS011;63509;45.250;38.102;2024-02-14T06:06:08;49.15;;;17.42;;
74945;SDS011;63509;45.250;38.102;2024-02-14T06:08:36;53.75;;;18.65;;
74945;SDS011;63509;45.250;38.102;2024-02-14T06:11:02;60.38;;;19.52;;
74945;SDS011;63509;45.250;38.102;2024-02-14T06:13:29;72.38;;;19.00;;
74945;SDS011;63509;45.250;38.102;2024-02-14T06:15:58;55.70;;;16.83;;
74945;SDS011;63509;45.250;38.102;2024-02-14T06:18:24;47.85;;;16.55;;
74945;SDS011;63509;45.250;38.102;2024-02-14T06:20:51;31.83;;;16.02;;
74945;SDS011;63509;45.250;38.102;2024-02-14T06:23:17;41.40;;;15.50;;
74945;SDS011;63509;45.250;38.102;2024-02-14T06:25:45;43.97;;;16.35;;
74945;SDS011;63509;45.250;38.102;2024-02-14T06:28:12;67.95;;;17.73;;
74945;SDS011;63509;45.250;38.102;2024-02-14T06:30:40;49.15;;;18.08;;
74945;SDS011;63509;45.250;38.102;2024-02-14T06:33:06;57.15;;;18.67;;
74945;SDS011;63509;45.250;38.102;2024-02-14T06:35:32;43.70;;;15.82;;
74945;SDS011;63509;45.250;38.102;2024-02-14T06:38:04;35.08;;;14.73;;
74945;SDS011;63509;45.250;38.102;2024-02-14T06:40:32;36.00;;;15.13;;
74945;SDS011;63509;45.250;38.102;2024-02-14T06:42:58;30.80;;;14.43;;
74945;SDS011;63509;45.250;38.102;2024-02-14T06:45:28;38.97;;;16.05;;
74945;SDS011;63509;45.250;38.102;2024-02-14T06:47:55;42.40;;;16.13;;
74945;SDS011;63509;45.250;38.102;2024-02-14T06:50:21;35.05;;;16.20;;
74945;SDS011;63509;45.250;38.102;2024-02-14T06:52:47;38.78;;;15.52;;
74945;SDS011;63509;45.250;38.102;2024-02-14T06:55:13;28.85;;;14.30;;
74945;SDS011;63509;45.250;38.102;2024-02-14T06:57:39;28.83;;;13.90;;
74945;SDS011;63509;45.250;38.102;2024-02-14T07:00:06;29.38;;;13.27;;
74945;SDS011;63509;45.250;38.102;2024-02-14T07:02:37;42.38;;;13.55;;
74945;SDS011;63509;45.250;38.102;2024-02-14T07:05:09;35.25;;;13.10;;
74945;SDS011;63509;45.250;38.102;2024-02-14T07:07:38;28.13;;;14.00;;
74945;SDS011;63509;45.250;38.102;2024-02-14T07:10:07;36.63;;;13.95;;
74945;SDS011;63509;45.250;38.102;2024-02-14T07:12:36;36.35;;;12.48;;
74945;SDS011;63509;45.250;38.102;2024-02-14T07:15:03;32.03;;;11.57;;
74945;SDS011;63509;45.250;38.102;2024-02-14T07:17:30;26.30;;;12.23;;
74945;SDS011;63509;45.250;38.102;2024-02-14T07:19:57;27.92;;;13.02;;
74945;SDS011;63509;45.250;38.102;2024-02-14T07:22:23;30.75;;;12.35;;
74945;SDS011;63509;45.250;38.102;2024-02-14T07:24:49;25.70;;;12.48;;
74945;SDS011;63509;45.250;38.102;2024-02-14T07:27:15;36.85;;;13.68;;
74945;SDS011;63509;45.250;38.102;2024-02-14T07:29:42;32.97;;;13.20;;
74945;SDS011;63509;45.250;38.102;2024-02-14T07:34:40;20.27;;;11.07;;
74945;SDS011;63509;45.250;38.102;2024-02-14T07:37:09;25.13;;;12.23;;
74945;SDS011;63509;45.250;38.102;2024-02-14T07:39:36;48.10;;;14.38;;
74945;SDS011;63509;45.250;38.102;2024-02-14T07:42:02;33.03;;;13.02;;
74945;SDS011;63509;45.250;38.102;2024-02-14T07:44:30;32.85;;;14.13;;
74945;SDS011;63509;45.250;38.102;2024-02-14T07:46:56;38.85;;;14.35;;
74945;SDS011;63509;45.250;38.102;2024-02-14T07:49:23;31.38;;;12.50;;
74945;SDS011;63509;45.250;38.102;2024-02-14T07:51:50;32.63;;;15.38;;
74945;SDS011;63509;45.250;38.102;2024-02-14T07:54:17;36.60;;;14.27;;
74945;SDS011;63509;45.250;38.102;2024-02-14T07:56:45;37.35;;;13.77;;
74945;SDS011;63509;45.250;38.102;2024-02-14T08:01:39;38.15;;;14.10;;
74945;SDS011;63509;45.250;38.102;2024-02-14T08:04:05;43.65;;;12.43;;
74945;SDS011;63509;45.250;38.102;2024-02-14T08:06:32;33.67;;;14.05;;
74945;SDS011;63509;45.250;38.102;2024-02-14T08:08:59;38.15;;;13.20;;
74945;SDS011;63509;45.250;38.102;2024-02-14T08:11:28;27.60;;;13.93;;
74945;SDS011;63509;45.250;38.102;2024-02-14T08:13:54;22.67;;;12.00;;
74945;SDS011;63509;45.250;38.102;2024-02-14T08:18:49;20.02;;;10.02;;
74945;SDS011;63509;45.250;38.102;2024-02-14T08:21:18;23.75;;;10.10;;
74945;SDS011;63509;45.250;38.102;2024-02-14T08:23:52;19.95;;;11.00;;
74945;SDS011;63509;45.250;38.102;2024-02-14T08:26:23;24.55;;;11.23;;
74945;SDS011;63509;45.250;38.102;2024-02-14T08:28:50;22.75;;;10.52;;
74945;SDS011;63509;45.250;38.102;2024-02-14T08:31:17;22.92;;;12.32;;
74945;SDS011;63509;45.250;38.102;2024-02-14T08:33:47;38.50;;;13.88;;
74945;SDS011;63509;45.250;38.102;2024-02-14T08:36:17;32.08;;;11.70;;
74945;SDS011;63509;45.250;38.102;2024-02-14T08:38:44;34.65;;;12.35;;
74945;SDS011;63509;45.250;38.102;2024-02-14T08:41:10;26.95;;;12.57;;
74945;SDS011;63509;45.250;38.102;2024-02-14T08:43:38;33.97;;;12.60;;
74945;SDS011;63509;45.250;38.102;2024-02-14T08:46:11;30.60;;;12.57;;
74945;SDS011;63509;45.250;38.102;2024-02-14T08:48:37;41.85;;;14.20;;
74945;SDS011;63509;45.250;38.102;2024-02-14T08:51:14;35.97;;;13.30;;
74945;SDS011;63509;45.250;38.102;2024-02-14T08:53:40;25.60;;;12.57;;
74945;SDS011;63509;45.250;38.102;2024-02-14T08:56:10;28.13;;;13.52;;
74945;SDS011;63509;45.250;38.102;2024-02-14T08:58:36;32.40;;;15.60;;
74945;SDS011;63509;45.250;38.102;2024-02-14T09:01:03;36.00;;;15.80;;
74945;SDS011;63509;45.250;38.102;2024-02-14T09:03:29;30.13;;;15.07;;
74945;SDS011;63509;45.250;38.102;2024-02-14T09:05:57;45.42;;;17.17;;
74945;SDS011;63509;45.250;38.102;2024-02-14T09:08:23;27.40;;;14.85;;
74945;SDS011;63509;45.250;38.102;2024-02-14T09:10:50;35.70;;;16.42;;
74945;SDS011;63509;45.250;38.102;2024-02-14T09:13:16;37.60;;;15.73;;
74945;SDS011;63509;45.250;38.102;2024-02-14T09:15:43;26.77;;;14.23;;
74945;SDS011;63509;45.250;38.102;2024-02-14T09:18:12;33.47;;;15.38;;
74945;SDS011;63509;45.250;38.102;2024-02-14T09:20:38;30.02;;;16.25;;
74945;SDS011;63509;45.250;38.102;2024-02-14T09:23:04;30.15;;;14.85;;
74945;SDS011;63509;45.250;38.102;2024-02-14T09:25:30;25.88;;;15.35;;
74945;SDS011;63509;45.250;38.102;2024-02-14T09:27:58;36.03;;;14.77;;
74945;SDS011;63509;45.250;38.102;2024-02-14T09:30:24;32.70;;;15.10;;
74945;SDS011;63509;45.250;38.102;2024-02-14T09:32:51;35.20;;;14.43;;
74945;SDS011;63509;45.250;38.102;2024-02-14T09:35:18;37.72;;;15.85;;
74945;SDS011;63509;45.250;38.102;2024-02-14T09:37:44;44.97;;;16.40;;
74945;SDS011;63509;45.250;38.102;2024-02-14T09:40:10;30.67;;;14.95;;
74945;SDS011;63509;45.250;38.102;2024-02-14T09:42:38;23.05;;;14.00;;
74945;SDS011;63509;45.250;38.102;2024-02-14T09:45:11;29.90;;;15.32;;
74945;SDS011;63509;45.250;38.102;2024-02-14T09:47:38;33.38;;;14.20;;
74945;SDS011;63509;45.250;38.102;2024-02-14T09:50:06;38.20;;;15.32;;
74945;SDS011;63509;45.250;38.102;2024-02-14T09:52:35;31.67;;;13.85;;
74945;SDS011;63509;45.250;38.102;2024-02-14T09:55:03;24.83;;;13.95;;
74945;SDS011;63509;45.250;38.102;2024-02-14T09:57:32;33.67;;;14.52;;
74945;SDS011;63509;45.250;38.102;2024-02-14T10:00:00;35.17;;;14.35;;
74945;SDS011;63509;45.250;38.102;2024-02-14T10:02:35;23.98;;;12.75;;
74945;SDS011;63509;45.250;38.102;2024-02-14T10:05:01;26.15;;;12.55;;
74945;SDS011;63509;45.250;38.102;2024-02-14T10:07:28;31.50;;;14.20;;
74945;SDS011;63509;45.250;38.102;2024-02-14T10:09:54;24.73;;;12.80;;
74945;SDS011;63509;45.250;38.102;2024-02-14T10:12:20;30.25;;;12.60;;
74945;SDS011;63509;45.250;38.102;2024-02-14T10:14:46;37.33;;;13.07;;
74945;SDS011;63509;45.250;38.102;2024-02-14T10:17:18;26.83;;;11.70;;
74945;SDS011;63509;45.250;38.102;2024-02-14T10:20:05;23.63;;;11.68;;
74945;SDS011;63509;45.250;38.102;2024-02-14T10:22:32;30.48;;;11.43;;
74945;SDS011;63509;45.250;38.102;2024-02-14T10:25:02;18.50;;;10.98;;
74945;SDS011;63509;45.250;38.102;2024-02-14T10:27:36;28.83;;;11.05;;
74945;SDS011;63509;45.250;38.102;2024-02-14T10:30:06;19.25;;;11.07;;
74945;SDS011;63509;45.250;38.102;2024-02-14T10:32:37;26.35;;;11.18;;
74945;SDS011;63509;45.250;38.102;2024-02-14T10:35:06;27.42;;;11.98;;
74945;SDS011;63509;45.250;38.102;2024-02-14T10:37:39;34.42;;;12.23;;
74945;SDS011;63509;45.250;38.102;2024-02-14T10:40:05;26.83;;;11.73;;
74945;SDS011;63509;45.250;38.102;2024-02-14T10:42:32;23.67;;;11.73;;
74945;SDS011;63509;45.250;38.102;2024-02-14T10:44:59;21.38;;;11.13;;
74945;SDS011;63509;45.250;38.102;2024-02-14T10:47:30;24.20;;;11.90;;
74945;SDS011;63509;45.250;38.102;2024-02-14T10:50:01;19.58;;;10.55;;
74945;SDS011;63509;45.250;38.102;2024-02-14T10:52:31;31.95;;;13.07;;
74945;SDS011;63509;45.250;38.102;2024-02-14T10:55:02;33.88;;;11.75;;
74945;SDS011;63509;45.250;38.102;2024-02-14T10:57:30;35.53;;;15.10;;
74945;SDS011;63509;45.250;38.102;2024-02-14T11:00:03;25.30;;;12.10;;
74945;SDS011;63509;45.250;38.102;2024-02-14T11:02:33;26.98;;;11.95;;
74945;SDS011;63509;45.250;38.102;2024-02-14T11:05:01;21.55;;;12.02;;
74945;SDS011;63509;45.250;38.102;2024-02-14T11:07:33;32.53;;;13.32;;
74945;SDS011;63509;45.250;38.102;2024-02-14T11:10:00;29.58;;;13.43;;
74945;SDS011;63509;45.250;38.102;2024-02-14T11:12:34;22.95;;;13.07;;
74945;SDS011;63509;45.250;38.102;2024-02-14T11:15:11;26.95;;;13.23;;
74945;SDS011;63509;45.250;38.102;2024-02-14T11:17:45;25.67;;;13.35;;
74945;SDS011;63509;45.250;38.102;2024-02-14T11:20:18;50.92;;;14.80;;
74945;SDS011;63509;45.250;38.102;2024-02-14T11:22:55;27.75;;;13.07;;
74945;SDS011;63509;45.250;38.102;2024-02-14T11:25:29;29.05;;;13.20;;
74945;SDS011;63509;45.250;38.102;2024-02-14T11:28:18;30.67;;;12.18;;
74945;SDS011;63509;45.250;38.102;2024-02-14T11:30:49;20.45;;;11.07;;
74945;SDS011;63509;45.250;38.102;2024-02-14T11:33:21;21.73;;;11.43;;
74945;SDS011;63509;45.250;38.102;2024-02-14T11:35:49;22.30;;;11.18;;
74945;SDS011;63509;45.250;38.102;2024-02-14T11:38:18;28.17;;;12.73;;
74945;SDS011;63509;45.250;38.102;2024-02-14T11:40:54;30.83;;;13.27;;
74945;SDS011;63509;45.250;38.102;2024-02-14T11:43:24;30.80;;;12.38;;
74945;SDS011;63509;45.250;38.102;2024-02-14T11:45:50;24.77;;;12.10;;
74945;SDS011;63509;45.250;38.102;2024-02-14T11:48:18;21.92;;;11.30;;
74945;SDS011;63509;45.250;38.102;2024-02-14T11:50:49;27.02;;;12.30;;
74945;SDS011;63509;45.250;38.102;2024-02-14T11:53:18;28.55;;;11.45;;
74945;SDS011;63509;45.250;38.102;2024-02-14T11:55:45;21.98;;;11.52;;
74945;SDS011;63509;45.250;38.102;2024-02-14T11:58:15;22.65;;;11.77;;
74945;SDS011;63509;45.250;38.102;2024-02-14T12:00:43;19.73;;;11.32;;
74945;SDS011;63509;45.250;38.102;2024-02-14T12:03:14;26.38;;;12.55;;
74945;SDS011;63509;45.250;38.102;2024-02-14T12:05:46;27.30;;;14.35;;
74945;SDS011;63509;45.250;38.102;2024-02-14T12:08:16;38.92;;;15.32;;
74945;SDS011;63509;45.250;38.102;2024-02-14T12:10:46;29.85;;;14.80;;
74945;SDS011;63509;45.250;38.102;2024-02-14T12:13:15;33.75;;;16.30;;
74945;SDS011;63509;45.250;38.102;2024-02-14T12:15:48;33.22;;;17.98;;
74945;SDS011;63509;45.250;38.102;2024-02-14T12:18:16;35.33;;;17.15;;
74945;SDS011;63509;45.250;38.102;2024-02-14T12:20:45;26.52;;;16.33;;
74945;SDS011;63509;45.250;38.102;2024-02-14T12:23:15;37.53;;;16.90;;
74945;SDS011;63509;45.250;38.102;2024-02-14T12:25:46;30.92;;;16.50;;
74945;SDS011;63509;45.250;38.102;2024-02-14T12:28:15;38.15;;;17.35;;
74945;SDS011;63509;45.250;38.102;2024-02-14T12:30:43;44.00;;;17.90;;
74945;SDS011;63509;45.250;38.102;2024-02-14T12:33:15;34.78;;;18.15;;
74945;SDS011;63509;45.250;38.102;2024-02-14T12:35:44;43.17;;;19.80;;
74945;SDS011;63509;45.250;38.102;2024-02-14T12:38:12;44.05;;;19.40;;
74945;SDS011;63509;45.250;38.102;2024-02-14T12:40:41;33.42;;;19.50;;
74945;SDS011;63509;45.250;38.102;2024-02-14T12:43:08;44.20;;;20.95;;
74945;SDS011;63509;45.250;38.102;2024-02-14T12:48:06;37.42;;;19.20;;
74945;SDS011;63509;45.250;38.102;2024-02-14T12:50:36;41.15;;;19.00;;
74945;SDS011;63509;45.250;38.102;2024-02-14T12:53:03;39.85;;;20.10;;
74945;SDS011;63509;45.250;38.102;2024-02-14T12:55:30;43.00;;;20.63;;
74945;SDS011;63509;45.250;38.102;2024-02-14T12:58:00;44.65;;;21.58;;
74945;SDS011;63509;45.250;38.102;2024-02-14T13:00:29;38.17;;;22.02;;
74945;SDS011;63509;45.250;38.102;2024-02-14T13:02:57;44.20;;;24.45;;
74945;SDS011;63509;45.250;38.102;2024-02-14T13:05:26;52.45;;;23.77;;
74945;SDS011;63509;45.250;38.102;2024-02-14T13:07:53;47.65;;;21.98;;
74945;SDS011;63509;45.250;38.102;2024-02-14T13:10:19;40.58;;;23.45;;
74945;SDS011;63509;45.250;38.102;2024-02-14T13:12:47;46.70;;;22.15;;
74945;SDS011;63509;45.250;38.102;2024-02-14T13:15:14;49.28;;;21.58;;
74945;SDS011;63509;45.250;38.102;2024-02-14T13:17:41;43.28;;;21.92;;
74945;SDS011;63509;45.250;38.102;2024-02-14T13:20:08;49.63;;;23.88;;
74945;SDS011;63509;45.250;38.102;2024-02-14T13:22:43;41.35;;;22.15;;
74945;SDS011;63509;45.250;38.102;2024-02-14T13:25:10;53.40;;;23.48;;
74945;SDS011;63509;45.250;38.102;2024-02-14T13:27:37;45.97;;;21.52;;
74945;SDS011;63509;45.250;38.102;2024-02-14T13:30:04;47.20;;;22.25;;
74945;SDS011;63509;45.250;38.102;2024-02-14T13:32:32;49.90;;;22.38;;
74945;SDS011;63509;45.250;38.102;2024-02-14T13:34:59;39.90;;;21.25;;
74945;SDS011;63509;45.250;38.102;2024-02-14T13:37:26;36.13;;;20.00;;
74945;SDS011;63509;45.250;38.102;2024-02-14T13:39:52;41.58;;;20.67;;
74945;SDS011;63509;45.250;38.102;2024-02-14T13:42:18;45.00;;;19.17;;
74945;SDS011;63509;45.250;38.102;2024-02-14T13:44:45;36.15;;;17.55;;
74945;SDS011;63509;45.250;38.102;2024-02-14T13:47:11;36.35;;;18.17;;
74945;SDS011;63509;45.250;38.102;2024-02-14T13:49:38;43.55;;;20.08;;
74945;SDS011;63509;45.250;38.102;2024-02-14T13:52:05;36.97;;;18.63;;
74945;SDS011;63509;45.250;38.102;2024-02-14T13:54:31;31.48;;;17.30;;
74945;SDS011;63509;45.250;38.102;2024-02-14T13:59:25;42.45;;;18.08;;
74945;SDS011;63509;45.250;38.102;2024-02-14T14:01:51;40.33;;;17.60;;
74945;SDS011;63509;45.250;38.102;2024-02-14T14:04:17;34.78;;;18.02;;
74945;SDS011;63509;45.250;38.102;2024-02-14T14:06:44;39.35;;;18.40;;
74945;SDS011;63509;45.250;38.102;2024-02-14T14:09:11;44.60;;;19.65;;
74945;SDS011;63509;45.250;38.102;2024-02-14T14:11:37;44.42;;;21.48;;
74945;SDS011;63509;45.250;38.102;2024-02-14T14:14:04;58.50;;;20.92;;
74945;SDS011;63509;45.250;38.102;2024-02-14T14:16:31;45.00;;;19.98;;
74945;SDS011;63509;45.250;38.102;2024-02-14T14:19:00;50.05;;;20.83;;
74945;SDS011;63509;45.250;38.102;2024-02-14T14:21:26;41.50;;;20.48;;
74945;SDS011;63509;45.250;38.102;2024-02-14T14:23:53;37.47;;;19.48;;
74945;SDS011;63509;45.250;38.102;2024-02-14T14:26:19;37.60;;;19.38;;
74945;SDS011;63509;45.250;38.102;2024-02-14T14:28:46;49.58;;;21.10;;